sensor_id;sensor_type;location;lat;lon;timestamp;pressure;altitude;pressure_sealevel;temperature;humidity
81545;BME280;70990;50.618;7.346;2023-07-20T00:02:02;98059.53;;;15.99;69.84
81545;BME280;70990;50.618;7.346;2023-07-20T00:04:29;98049.06;;;16.03;69.61
81545;BME280;70990;50.618;7.346;2023-07-20T00:06:56;98050.34;;;16.11;70.57
81545;BME280;70990;50.618;7.346;2023-07-20T00:09:22;98055.66;;;16.19;69.87
81545;BME280;70990;50.618;7.346;2023-07-20T00:11:51;98044.81;;;16.21;70.35
81545;BME280;70990;50.618;7.346;2023-07-20T00:14:18;98052.56;;;16.17;72.57
81545;BME280;70990;50.618;7.346;2023-07-20T00:16:45;98053.69;;;16.06;72.78
81545;BME280;70990;50.618;7.346;2023-07-20T00:19:12;98043.53;;;16.12;72.27
81545;BME280;70990;50.618;7.346;2023-07-20T00:21:39;98051.09;;;16.12;73.33
81545;BME280;70990;50.618;7.346;2023-07-20T00:24:06;98059.28;;;15.85;76.57
81545;BME280;70990;50.618;7.346;2023-07-20T00:26:32;98061.13;;;15.66;76.32
81545;BME280;70990;50.618;7.346;2023-07-20T00:28:59;98068.06;;;15.61;77.40
81545;BME280;70990;50.618;7.346;2023-07-20T00:31:26;98059.16;;;15.41;80.02
81545;BME280;70990;50.618;7.346;2023-07-20T00:33:52;98060.22;;;15.09;80.99
81545;BME280;70990;50.618;7.346;2023-07-20T00:36:19;98066.25;;;14.95;82.29
81545;BME280;70990;50.618;7.346;2023-07-20T00:38:46;98078.50;;;14.72;84.22
81545;BME280;70990;50.618;7.346;2023-07-20T00:41:13;98075.13;;;14.65;85.32
81545;BME280;70990;50.618;7.346;2023-07-20T00:43:39;98077.25;;;14.61;86.03
81545;BME280;70990;50.618;7.346;2023-07-20T00:46:07;98069.34;;;14.46;85.08
81545;BME280;70990;50.618;7.346;2023-07-20T00:48:34;98069.09;;;14.41;86.14
81545;BME280;70990;50.618;7.346;2023-07-20T00:51:02;98070.16;;;14.31;86.30
81545;BME280;70990;50.618;7.346;2023-07-20T00:53:29;98072.50;;;14.32;86.07
81545;BME280;70990;50.618;7.346;2023-07-20T00:55:55;98056.47;;;14.24;86.76
81545;BME280;70990;50.618;7.346;2023-07-20T00:58:22;98062.56;;;14.19;86.90
81545;BME280;70990;50.618;7.346;2023-07-20T01:00:49;98060.69;;;14.16;87.43
81545;BME280;70990;50.618;7.346;2023-07-20T01:03:18;98060.88;;;14.08;87.51
81545;BME280;70990;50.618;7.346;2023-07-20T01:05:54;98057.47;;;14.17;87.46
81545;BME280;70990;50.618;7.346;2023-07-20T01:08:30;98066.13;;;14.19;87.08
81545;BME280;70990;50.618;7.346;2023-07-20T01:11:08;98063.94;;;14.27;87.24
81545;BME280;70990;50.618;7.346;2023-07-20T01:13:37;98059.22;;;14.11;87.97
81545;BME280;70990;50.618;7.346;2023-07-20T01:16:05;98063.03;;;14.17;88.09
81545;BME280;70990;50.618;7.346;2023-07-20T01:18:31;98063.69;;;14.21;87.86
81545;BME280;70990;50.618;7.346;2023-07-20T01:21:03;98053.56;;;14.14;88.11
81545;BME280;70990;50.618;7.346;2023-07-20T01:24:04;98052.00;;;14.13;87.76
81545;BME280;70990;50.618;7.346;2023-07-20T01:32:29;98057.25;;;14.24;89.45
81545;BME280;70990;50.618;7.346;2023-07-20T01:34:58;98048.91;;;14.11;88.85
81545;BME280;70990;50.618;7.346;2023-07-20T01:37:26;98052.91;;;14.10;89.18
81545;BME280;70990;50.618;7.346;2023-07-20T01:39:54;98047.88;;;14.18;88.75
81545;BME280;70990;50.618;7.346;2023-07-20T01:42:24;98046.88;;;14.12;88.66
81545;BME280;70990;50.618;7.346;2023-07-20T01:44:51;98041.78;;;14.10;88.51
81545;BME280;70990;50.618;7.346;2023-07-20T01:47:18;98034.44;;;14.04;88.76
81545;BME280;70990;50.618;7.346;2023-07-20T01:49:44;98047.09;;;14.05;88.68
81545;BME280;70990;50.618;7.346;2023-07-20T01:52:11;98039.09;;;14.07;88.79
81545;BME280;70990;50.618;7.346;2023-07-20T01:54:38;98044.25;;;14.21;89.39
81545;BME280;70990;50.618;7.346;2023-07-20T01:57:04;98039.13;;;14.20;88.36
81545;BME280;70990;50.618;7.346;2023-07-20T01:59:31;98031.13;;;14.22;89.83
81545;BME280;70990;50.618;7.346;2023-07-20T02:01:57;98044.69;;;14.32;87.70
81545;BME280;70990;50.618;7.346;2023-07-20T02:04:24;98042.25;;;14.22;87.80
81545;BME280;70990;50.618;7.346;2023-07-20T02:06:51;98027.34;;;14.28;87.61
81545;BME280;70990;50.618;7.346;2023-07-20T02:09:18;98034.13;;;14.27;87.02
81545;BME280;70990;50.618;7.346;2023-07-20T02:11:44;98037.94;;;14.33;87.80
81545;BME280;70990;50.618;7.346;2023-07-20T02:14:11;98031.13;;;14.22;87.14
81545;BME280;70990;50.618;7.346;2023-07-20T02:16:38;98033.25;;;14.30;88.19
81545;BME280;70990;50.618;7.346;2023-07-20T02:19:04;98027.91;;;14.23;89.06
81545;BME280;70990;50.618;7.346;2023-07-20T02:21:31;98024.31;;;14.10;89.16
81545;BME280;70990;50.618;7.346;2023-07-20T02:23:58;98028.41;;;14.05;89.79
81545;BME280;70990;50.618;7.346;2023-07-20T02:26:25;98033.50;;;13.94;90.26
81545;BME280;70990;50.618;7.346;2023-07-20T02:28:51;98032.03;;;13.90;90.40
81545;BME280;70990;50.618;7.346;2023-07-20T02:31:20;98032.72;;;13.94;89.88
81545;BME280;70990;50.618;7.346;2023-07-20T02:33:47;98035.91;;;13.80;89.38
81545;BME280;70990;50.618;7.346;2023-07-20T02:36:14;98034.78;;;13.77;89.27
81545;BME280;70990;50.618;7.346;2023-07-20T02:38:40;98036.34;;;13.78;88.38
81545;BME280;70990;50.618;7.346;2023-07-20T02:41:07;98032.44;;;13.76;88.30
81545;BME280;70990;50.618;7.346;2023-07-20T02:43:33;98020.84;;;13.64;88.63
81545;BME280;70990;50.618;7.346;2023-07-20T02:46:00;98026.09;;;13.46;89.29
81545;BME280;70990;50.618;7.346;2023-07-20T02:48:27;98029.66;;;13.47;89.25
81545;BME280;70990;50.618;7.346;2023-07-20T02:50:53;98025.72;;;13.60;88.52
81545;BME280;70990;50.618;7.346;2023-07-20T02:53:20;98024.25;;;13.56;88.44
81545;BME280;70990;50.618;7.346;2023-07-20T02:55:46;98024.97;;;13.44;88.73
81545;BME280;70990;50.618;7.346;2023-07-20T02:58:13;98025.66;;;13.48;88.15
81545;BME280;70990;50.618;7.346;2023-07-20T03:00:42;98022.72;;;13.39;89.14
81545;BME280;70990;50.618;7.346;2023-07-20T03:03:09;98022.78;;;13.51;88.39
81545;BME280;70990;50.618;7.346;2023-07-20T03:05:36;98019.03;;;13.29;88.53
81545;BME280;70990;50.618;7.346;2023-07-20T03:08:03;98028.53;;;13.44;87.76
81545;BME280;70990;50.618;7.346;2023-07-20T03:10:30;98032.50;;;13.43;88.61
81545;BME280;70990;50.618;7.346;2023-07-20T03:12:56;98037.38;;;13.39;88.56
81545;BME280;70990;50.618;7.346;2023-07-20T03:15:23;98043.22;;;13.28;88.84
81545;BME280;70990;50.618;7.346;2023-07-20T03:17:50;98049.94;;;13.44;88.52
81545;BME280;70990;50.618;7.346;2023-07-20T03:20:17;98049.28;;;13.23;89.01
81545;BME280;70990;50.618;7.346;2023-07-20T03:22:44;98047.09;;;13.31;89.10
81545;BME280;70990;50.618;7.346;2023-07-20T03:25:10;98054.38;;;13.25;89.08
81545;BME280;70990;50.618;7.346;2023-07-20T03:27:37;98051.97;;;13.27;89.37
81545;BME280;70990;50.618;7.346;2023-07-20T03:30:04;98051.28;;;13.23;89.67
81545;BME280;70990;50.618;7.346;2023-07-20T03:32:32;98047.31;;;13.24;89.86
81545;BME280;70990;50.618;7.346;2023-07-20T03:35:01;98042.72;;;13.17;89.90
81545;BME280;70990;50.618;7.346;2023-07-20T03:37:28;98050.03;;;13.40;88.88
81545;BME280;70990;50.618;7.346;2023-07-20T03:39:54;98048.41;;;13.43;88.53
81545;BME280;70990;50.618;7.346;2023-07-20T03:42:21;98044.16;;;13.22;89.18
81545;BME280;70990;50.618;7.346;2023-07-20T03:44:48;98048.34;;;13.30;89.28
81545;BME280;70990;50.618;7.346;2023-07-20T03:47:14;98053.03;;;13.17;89.10
81545;BME280;70990;50.618;7.346;2023-07-20T03:49:41;98056.66;;;13.14;89.60
81545;BME280;70990;50.618;7.346;2023-07-20T03:52:07;98051.72;;;13.21;89.37
81545;BME280;70990;50.618;7.346;2023-07-20T03:54:34;98057.41;;;13.30;89.04
81545;BME280;70990;50.618;7.346;2023-07-20T03:57:01;98050.94;;;13.21;89.10
81545;BME280;70990;50.618;7.346;2023-07-20T03:59:27;98056.38;;;13.08;89.58
81545;BME280;70990;50.618;7.346;2023-07-20T04:01:54;98056.47;;;13.05;89.40
81545;BME280;70990;50.618;7.346;2023-07-20T04:04:20;98061.31;;;13.01;89.53
81545;BME280;70990;50.618;7.346;2023-07-20T04:06:47;98062.69;;;12.92;89.54
81545;BME280;70990;50.618;7.346;2023-07-20T04:09:14;98060.63;;;12.97;89.40
81545;BME280;70990;50.618;7.346;2023-07-20T04:11:41;98065.28;;;12.83;90.88
81545;BME280;70990;50.618;7.346;2023-07-20T04:14:07;98068.75;;;12.87;90.23
81545;BME280;70990;50.618;7.346;2023-07-20T04:16:34;98057.84;;;12.80;90.61
81545;BME280;70990;50.618;7.346;2023-07-20T04:19:01;98065.03;;;12.94;90.62
81545;BME280;70990;50.618;7.346;2023-07-20T04:21:28;98063.19;;;12.87;90.96
81545;BME280;70990;50.618;7.346;2023-07-20T04:23:55;98062.19;;;12.98;90.33
81545;BME280;70990;50.618;7.346;2023-07-20T04:26:22;98062.88;;;12.85;90.84
81545;BME280;70990;50.618;7.346;2023-07-20T04:28:49;98066.84;;;12.84;90.58
81545;BME280;70990;50.618;7.346;2023-07-20T04:31:26;98057.22;;;12.89;90.57
81545;BME280;70990;50.618;7.346;2023-07-20T04:33:52;98066.06;;;13.00;90.02
81545;BME280;70990;50.618;7.346;2023-07-20T04:36:19;98064.44;;;13.03;90.08
81545;BME280;70990;50.618;7.346;2023-07-20T04:38:46;98067.56;;;13.05;90.30
81545;BME280;70990;50.618;7.346;2023-07-20T04:41:17;98061.91;;;13.08;90.10
81545;BME280;70990;50.618;7.346;2023-07-20T04:43:46;98068.00;;;13.19;89.82
81545;BME280;70990;50.618;7.346;2023-07-20T04:46:18;98072.28;;;13.24;89.49
81545;BME280;70990;50.618;7.346;2023-07-20T04:48:46;98068.63;;;13.27;89.92
81545;BME280;70990;50.618;7.346;2023-07-20T04:51:13;98070.88;;;13.32;89.20
81545;BME280;70990;50.618;7.346;2023-07-20T04:53:40;98062.00;;;13.37;89.36
81545;BME280;70990;50.618;7.346;2023-07-20T04:56:08;98060.09;;;13.50;88.62
81545;BME280;70990;50.618;7.346;2023-07-20T04:58:35;98058.78;;;13.55;88.35
81545;BME280;70990;50.618;7.346;2023-07-20T05:01:01;98052.69;;;13.60;88.55
81545;BME280;70990;50.618;7.346;2023-07-20T05:03:30;98050.72;;;13.60;86.92
81545;BME280;70990;50.618;7.346;2023-07-20T05:05:57;98062.06;;;13.66;87.66
81545;BME280;70990;50.618;7.346;2023-07-20T05:08:24;98055.56;;;13.56;88.90
81545;BME280;70990;50.618;7.346;2023-07-20T05:10:51;98063.28;;;13.65;88.70
81545;BME280;70990;50.618;7.346;2023-07-20T05:13:19;98063.16;;;13.68;88.70
81545;BME280;70990;50.618;7.346;2023-07-20T05:15:45;98074.53;;;13.74;89.15
81545;BME280;70990;50.618;7.346;2023-07-20T05:18:16;98070.78;;;13.81;89.43
81545;BME280;70990;50.618;7.346;2023-07-20T05:20:42;98078.25;;;13.84;87.47
81545;BME280;70990;50.618;7.346;2023-07-20T05:23:09;98070.94;;;13.90;88.53
81545;BME280;70990;50.618;7.346;2023-07-20T05:25:36;98075.28;;;13.91;87.24
81545;BME280;70990;50.618;7.346;2023-07-20T05:28:03;98082.31;;;14.08;87.54
81545;BME280;70990;50.618;7.346;2023-07-20T05:30:30;98078.22;;;14.12;87.01
81545;BME280;70990;50.618;7.346;2023-07-20T05:32:57;98078.81;;;14.20;87.23
81545;BME280;70990;50.618;7.346;2023-07-20T05:35:23;98077.63;;;14.34;85.20
81545;BME280;70990;50.618;7.346;2023-07-20T05:37:50;98070.56;;;14.45;86.85
81545;BME280;70990;50.618;7.346;2023-07-20T05:40:17;98080.66;;;14.39;85.22
81545;BME280;70990;50.618;7.346;2023-07-20T05:42:43;98073.91;;;14.24;85.33
81545;BME280;70990;50.618;7.346;2023-07-20T05:45:10;98084.66;;;14.38;86.32
81545;BME280;70990;50.618;7.346;2023-07-20T05:47:37;98084.75;;;14.35;84.95
81545;BME280;70990;50.618;7.346;2023-07-20T05:50:04;98085.16;;;14.75;83.84
81545;BME280;70990;50.618;7.346;2023-07-20T05:52:31;98094.28;;;14.75;82.53
81545;BME280;70990;50.618;7.346;2023-07-20T05:54:58;98091.50;;;14.88;83.45
81545;BME280;70990;50.618;7.346;2023-07-20T05:57:25;98090.19;;;15.05;83.24
81545;BME280;70990;50.618;7.346;2023-07-20T05:59:51;98093.50;;;15.13;81.90
81545;BME280;70990;50.618;7.346;2023-07-20T06:02:19;98098.53;;;14.92;82.21
81545;BME280;70990;50.618;7.346;2023-07-20T06:08:33;98100.19;;;15.28;84.06
81545;BME280;70990;50.618;7.346;2023-07-20T06:11:01;98097.75;;;15.17;82.10
81545;BME280;70990;50.618;7.346;2023-07-20T06:13:27;98106.63;;;15.25;82.23
81545;BME280;70990;50.618;7.346;2023-07-20T06:15:54;98094.97;;;15.17;81.40
81545;BME280;70990;50.618;7.346;2023-07-20T06:18:22;98104.06;;;15.30;83.16
81545;BME280;70990;50.618;7.346;2023-07-20T06:20:51;98105.03;;;15.49;83.34
81545;BME280;70990;50.618;7.346;2023-07-20T06:23:19;98111.72;;;15.39;81.23
81545;BME280;70990;50.618;7.346;2023-07-20T06:25:46;98112.50;;;15.40;82.83
81545;BME280;70990;50.618;7.346;2023-07-20T06:28:13;98112.97;;;15.25;83.52
81545;BME280;70990;50.618;7.346;2023-07-20T06:30:41;98105.94;;;15.46;81.54
81545;BME280;70990;50.618;7.346;2023-07-20T06:33:07;98102.59;;;15.39;81.63
81545;BME280;70990;50.618;7.346;2023-07-20T06:35:34;98110.84;;;15.67;80.94
81545;BME280;70990;50.618;7.346;2023-07-20T06:38:02;98117.16;;;16.02;82.00
81545;BME280;70990;50.618;7.346;2023-07-20T06:40:31;98111.09;;;15.82;79.57
81545;BME280;70990;50.618;7.346;2023-07-20T06:42:58;98113.00;;;15.85;80.08
81545;BME280;70990;50.618;7.346;2023-07-20T06:45:28;98106.34;;;16.04;81.41
81545;BME280;70990;50.618;7.346;2023-07-20T06:47:55;98102.31;;;16.05;79.95
81545;BME280;70990;50.618;7.346;2023-07-20T06:50:21;98105.19;;;15.93;80.87
81545;BME280;70990;50.618;7.346;2023-07-20T06:52:52;98112.72;;;16.05;80.71
81545;BME280;70990;50.618;7.346;2023-07-20T06:55:20;98108.03;;;16.02;80.92
81545;BME280;70990;50.618;7.346;2023-07-20T06:57:50;98111.81;;;16.30;79.08
81545;BME280;70990;50.618;7.346;2023-07-20T07:00:16;98120.97;;;16.30;78.72
81545;BME280;70990;50.618;7.346;2023-07-20T07:02:43;98122.69;;;16.15;78.92
81545;BME280;70990;50.618;7.346;2023-07-20T07:05:13;98128.72;;;16.13;80.12
81545;BME280;70990;50.618;7.346;2023-07-20T07:07:42;98125.13;;;15.91;78.27
81545;BME280;70990;50.618;7.346;2023-07-20T07:10:09;98137.81;;;16.05;78.71
81545;BME280;70990;50.618;7.346;2023-07-20T07:12:35;98137.72;;;15.96;78.64
81545;BME280;70990;50.618;7.346;2023-07-20T07:15:04;98130.78;;;16.00;78.39
81545;BME280;70990;50.618;7.346;2023-07-20T07:17:30;98124.91;;;16.42;79.26
81545;BME280;70990;50.618;7.346;2023-07-20T07:20:00;98114.38;;;16.89;77.29
81545;BME280;70990;50.618;7.346;2023-07-20T07:22:26;98124.31;;;17.00;76.46
81545;BME280;70990;50.618;7.346;2023-07-20T07:24:53;98119.50;;;16.91;75.19
81545;BME280;70990;50.618;7.346;2023-07-20T07:27:20;98128.13;;;16.84;74.86
81545;BME280;70990;50.618;7.346;2023-07-20T07:29:46;98124.97;;;16.51;75.75
81545;BME280;70990;50.618;7.346;2023-07-20T07:32:14;98121.09;;;16.48;76.02
81545;BME280;70990;50.618;7.346;2023-07-20T07:34:41;98132.63;;;16.38;76.24
81545;BME280;70990;50.618;7.346;2023-07-20T07:37:08;98130.03;;;16.22;78.01
81545;BME280;70990;50.618;7.346;2023-07-20T07:39:34;98140.31;;;16.12;77.34
81545;BME280;70990;50.618;7.346;2023-07-20T07:42:01;98141.97;;;16.22;77.41
81545;BME280;70990;50.618;7.346;2023-07-20T07:44:28;98145.63;;;16.19;77.25
81545;BME280;70990;50.618;7.346;2023-07-20T07:46:54;98146.38;;;16.10;78.23
81545;BME280;70990;50.618;7.346;2023-07-20T07:49:21;98147.47;;;16.35;77.44
81545;BME280;70990;50.618;7.346;2023-07-20T07:51:48;98142.81;;;16.53;75.25
81545;BME280;70990;50.618;7.346;2023-07-20T07:54:14;98142.19;;;16.71;75.34
81545;BME280;70990;50.618;7.346;2023-07-20T07:56:41;98147.72;;;16.93;72.21
81545;BME280;70990;50.618;7.346;2023-07-20T07:59:07;98150.97;;;16.91;73.15
81545;BME280;70990;50.618;7.346;2023-07-20T08:01:34;98148.63;;;16.90;74.85
81545;BME280;70990;50.618;7.346;2023-07-20T08:04:01;98155.38;;;17.02;72.65
81545;BME280;70990;50.618;7.346;2023-07-20T08:06:28;98154.66;;;16.88;71.44
81545;BME280;70990;50.618;7.346;2023-07-20T08:08:55;98148.38;;;16.75;71.20
81545;BME280;70990;50.618;7.346;2023-07-20T08:11:21;98152.13;;;17.43;71.25
81545;BME280;70990;50.618;7.346;2023-07-20T08:13:48;98148.53;;;17.73;72.16
81545;BME280;70990;50.618;7.346;2023-07-20T08:16:15;98160.75;;;17.27;69.48
81545;BME280;70990;50.618;7.346;2023-07-20T08:18:42;98153.34;;;16.71;71.17
81545;BME280;70990;50.618;7.346;2023-07-20T08:21:08;98168.09;;;16.37;71.43
81545;BME280;70990;50.618;7.346;2023-07-20T08:23:36;98157.09;;;16.77;72.77
81545;BME280;70990;50.618;7.346;2023-07-20T08:26:08;98171.66;;;17.03;71.20
81545;BME280;70990;50.618;7.346;2023-07-20T08:28:35;98159.53;;;16.97;71.09
81545;BME280;70990;50.618;7.346;2023-07-20T08:31:05;98168.22;;;16.99;71.11
81545;BME280;70990;50.618;7.346;2023-07-20T08:33:32;98170.09;;;17.33;71.34
81545;BME280;70990;50.618;7.346;2023-07-20T08:36:01;98170.13;;;17.42;72.13
81545;BME280;70990;50.618;7.346;2023-07-20T08:38:27;98170.44;;;17.44;70.66
81545;BME280;70990;50.618;7.346;2023-07-20T08:40:54;98162.41;;;17.15;71.61
81545;BME280;70990;50.618;7.346;2023-07-20T08:43:22;98163.22;;;16.94;70.26
81545;BME280;70990;50.618;7.346;2023-07-20T08:45:50;98157.56;;;17.07;70.82
81545;BME280;70990;50.618;7.346;2023-07-20T08:48:18;98166.97;;;17.31;70.43
81545;BME280;70990;50.618;7.346;2023-07-20T08:50:47;98161.53;;;17.27;69.18
81545;BME280;70990;50.618;7.346;2023-07-20T08:53:15;98156.28;;;17.79;71.09
81545;BME280;70990;50.618;7.346;2023-07-20T08:55:50;98163.31;;;18.20;71.10
81545;BME280;70990;50.618;7.346;2023-07-20T08:58:18;98152.28;;;18.16;68.17
81545;BME280;70990;50.618;7.346;2023-07-20T09:00:45;98163.00;;;18.08;66.46
81545;BME280;70990;50.618;7.346;2023-07-20T09:03:14;98164.41;;;18.13;62.61
81545;BME280;70990;50.618;7.346;2023-07-20T09:05:41;98153.84;;;18.17;63.35
81545;BME280;70990;50.618;7.346;2023-07-20T09:08:08;98162.06;;;18.11;62.64
81545;BME280;70990;50.618;7.346;2023-07-20T09:10:34;98156.34;;;18.42;62.85
81545;BME280;70990;50.618;7.346;2023-07-20T09:13:01;98170.09;;;17.82;60.95
81545;BME280;70990;50.618;7.346;2023-07-20T09:15:28;98156.63;;;18.63;61.92
81545;BME280;70990;50.618;7.346;2023-07-20T09:17:55;98160.34;;;18.69;59.04
81545;BME280;70990;50.618;7.346;2023-07-20T09:20:22;98153.28;;;19.01;58.16
81545;BME280;70990;50.618;7.346;2023-07-20T09:22:50;98154.38;;;19.03;60.93
81545;BME280;70990;50.618;7.346;2023-07-20T09:25:18;98159.31;;;19.17;61.02
81545;BME280;70990;50.618;7.346;2023-07-20T09:27:48;98152.59;;;18.64;58.99
81545;BME280;70990;50.618;7.346;2023-07-20T09:30:18;98164.09;;;18.11;60.71
81545;BME280;70990;50.618;7.346;2023-07-20T09:32:46;98156.03;;;18.59;59.53
81545;BME280;70990;50.618;7.346;2023-07-20T09:35:18;98156.94;;;18.74;56.72
81545;BME280;70990;50.618;7.346;2023-07-20T09:37:59;98160.22;;;18.63;56.53
81545;BME280;70990;50.618;7.346;2023-07-20T09:40:29;98163.44;;;18.89;57.50
81545;BME280;70990;50.618;7.346;2023-07-20T09:42:59;98165.19;;;18.77;59.34
81545;BME280;70990;50.618;7.346;2023-07-20T09:45:30;98171.88;;;18.71;58.88
81545;BME280;70990;50.618;7.346;2023-07-20T09:48:06;98154.31;;;18.16;60.65
81545;BME280;70990;50.618;7.346;2023-07-20T09:50:40;98158.81;;;18.13;58.18
81545;BME280;70990;50.618;7.346;2023-07-20T09:53:07;98144.75;;;18.95;59.73
81545;BME280;70990;50.618;7.346;2023-07-20T09:55:40;98152.69;;;19.48;54.86
81545;BME280;70990;50.618;7.346;2023-07-20T09:58:08;98161.13;;;19.71;57.32
81545;BME280;70990;50.618;7.346;2023-07-20T10:00:40;98144.53;;;19.83;55.18
81545;BME280;70990;50.618;7.346;2023-07-20T10:03:10;98153.00;;;20.21;57.43
81545;BME280;70990;50.618;7.346;2023-07-20T10:05:40;98147.50;;;20.03;54.42
81545;BME280;70990;50.618;7.346;2023-07-20T10:08:12;98146.59;;;19.07;55.07
81545;BME280;70990;50.618;7.346;2023-07-20T10:10:42;98136.53;;;19.24;55.20
81545;BME280;70990;50.618;7.346;2023-07-20T10:13:17;98136.41;;;19.19;52.84
81545;BME280;70990;50.618;7.346;2023-07-20T10:15:51;98149.81;;;19.57;53.31
81545;BME280;70990;50.618;7.346;2023-07-20T10:18:25;98147.13;;;19.62;50.67
81545;BME280;70990;50.618;7.346;2023-07-20T10:20:54;98142.22;;;20.05;53.17
81545;BME280;70990;50.618;7.346;2023-07-20T10:23:26;98140.41;;;19.69;49.96
81545;BME280;70990;50.618;7.346;2023-07-20T10:25:55;98133.06;;;19.71;51.98
81545;BME280;70990;50.618;7.346;2023-07-20T10:28:24;98135.28;;;20.68;52.86
81545;BME280;70990;50.618;7.346;2023-07-20T10:30:51;98137.84;;;20.04;49.07
81545;BME280;70990;50.618;7.346;2023-07-20T10:33:18;98127.22;;;19.84;51.50
81545;BME280;70990;50.618;7.346;2023-07-20T10:36:01;98139.69;;;19.59;52.17
81545;BME280;70990;50.618;7.346;2023-07-20T10:43:49;98121.56;;;20.32;50.32
81545;BME280;70990;50.618;7.346;2023-07-20T10:49:07;98122.50;;;20.97;46.96
81545;BME280;70990;50.618;7.346;2023-07-20T10:51:44;98105.94;;;20.99;47.57
81545;BME280;70990;50.618;7.346;2023-07-20T10:56:44;98113.56;;;21.13;45.13
81545;BME280;70990;50.618;7.346;2023-07-20T11:01:55;98100.75;;;21.12;48.41
81545;BME280;70990;50.618;7.346;2023-07-20T11:07:05;98109.69;;;21.60;45.85
81545;BME280;70990;50.618;7.346;2023-07-20T11:09:35;98115.00;;;21.38;45.83
81545;BME280;70990;50.618;7.346;2023-07-20T11:12:11;98104.72;;;21.69;44.19
81545;BME280;70990;50.618;7.346;2023-07-20T11:14:57;98104.41;;;21.47;41.99
81545;BME280;70990;50.618;7.346;2023-07-20T11:17:31;98101.28;;;21.60;42.88
81545;BME280;70990;50.618;7.346;2023-07-20T11:20:01;98102.38;;;22.03;43.12
81545;BME280;70990;50.618;7.346;2023-07-20T11:22:31;98090.75;;;22.16;46.67
81545;BME280;70990;50.618;7.346;2023-07-20T11:24:58;98098.38;;;21.95;44.04
81545;BME280;70990;50.618;7.346;2023-07-20T11:27:25;98089.69;;;22.85;47.17
81545;BME280;70990;50.618;7.346;2023-07-20T11:29:51;98092.91;;;23.04;44.41
81545;BME280;70990;50.618;7.346;2023-07-20T11:32:21;98081.19;;;22.33;44.22
81545;BME280;70990;50.618;7.346;2023-07-20T11:34:49;98093.41;;;22.50;44.08
81545;BME280;70990;50.618;7.346;2023-07-20T11:37:16;98090.44;;;21.93;43.92
81545;BME280;70990;50.618;7.346;2023-07-20T11:39:43;98085.16;;;21.60;45.59
81545;BME280;70990;50.618;7.346;2023-07-20T11:42:13;98092.09;;;21.45;46.12
81545;BME280;70990;50.618;7.346;2023-07-20T11:45:02;98093.81;;;21.22;45.71
81545;BME280;70990;50.618;7.346;2023-07-20T11:47:29;98089.91;;;21.34;43.63
81545;BME280;70990;50.618;7.346;2023-07-20T11:50:03;98086.00;;;21.87;43.96
81545;BME280;70990;50.618;7.346;2023-07-20T11:52:30;98088.69;;;22.16;39.33
81545;BME280;70990;50.618;7.346;2023-07-20T11:54:57;98081.72;;;22.83;39.93
81545;BME280;70990;50.618;7.346;2023-07-20T11:57:24;98087.28;;;21.86;42.16
81545;BME280;70990;50.618;7.346;2023-07-20T12:02:21;98089.31;;;21.85;42.35
81545;BME280;70990;50.618;7.346;2023-07-20T12:04:48;98079.94;;;21.94;44.81
81545;BME280;70990;50.618;7.346;2023-07-20T12:07:15;98080.66;;;21.68;41.38
81545;BME280;70990;50.618;7.346;2023-07-20T12:09:41;98080.88;;;22.05;43.74
81545;BME280;70990;50.618;7.346;2023-07-20T12:12:18;98089.09;;;22.29;41.89
81545;BME280;70990;50.618;7.346;2023-07-20T12:14:45;98085.06;;;22.10;41.44
81545;BME280;70990;50.618;7.346;2023-07-20T12:17:13;98083.69;;;21.85;42.25
81545;BME280;70990;50.618;7.346;2023-07-20T12:19:39;98078.28;;;21.82;43.32
81545;BME280;70990;50.618;7.346;2023-07-20T12:22:06;98082.09;;;21.99;44.67
81545;BME280;70990;50.618;7.346;2023-07-20T12:24:33;98077.00;;;21.62;45.00
81545;BME280;70990;50.618;7.346;2023-07-20T12:26:59;98077.63;;;21.02;44.30
81545;BME280;70990;50.618;7.346;2023-07-20T12:29:27;98074.84;;;20.87;44.99
81545;BME280;70990;50.618;7.346;2023-07-20T12:31:53;98076.16;;;21.21;45.02
81545;BME280;70990;50.618;7.346;2023-07-20T12:34:20;98074.19;;;21.42;46.29
81545;BME280;70990;50.618;7.346;2023-07-20T12:36:47;98082.84;;;21.24;42.66
81545;BME280;70990;50.618;7.346;2023-07-20T12:39:13;98075.22;;;21.45;42.80
81545;BME280;70990;50.618;7.346;2023-07-20T12:41:40;98066.41;;;21.37;44.00
81545;BME280;70990;50.618;7.346;2023-07-20T12:44:06;98065.41;;;21.20;44.21
81545;BME280;70990;50.618;7.346;2023-07-20T12:46:33;98078.34;;;21.87;43.30
81545;BME280;70990;50.618;7.346;2023-07-20T12:48:59;98068.88;;;22.05;43.88
81545;BME280;70990;50.618;7.346;2023-07-20T12:51:26;98069.09;;;22.73;43.70
81545;BME280;70990;50.618;7.346;2023-07-20T12:53:52;98066.56;;;23.12;42.93
81545;BME280;70990;50.618;7.346;2023-07-20T12:56:19;98059.91;;;22.78;42.49
81545;BME280;70990;50.618;7.346;2023-07-20T12:58:48;98062.72;;;22.52;42.86
81545;BME280;70990;50.618;7.346;2023-07-20T13:01:15;98059.00;;;22.15;44.07
81545;BME280;70990;50.618;7.346;2023-07-20T13:03:42;98059.56;;;21.99;42.76
81545;BME280;70990;50.618;7.346;2023-07-20T13:06:11;98062.44;;;21.44;43.72
81545;BME280;70990;50.618;7.346;2023-07-20T13:08:41;98064.91;;;21.36;44.92
81545;BME280;70990;50.618;7.346;2023-07-20T13:11:07;98072.41;;;21.45;45.88
81545;BME280;70990;50.618;7.346;2023-07-20T13:13:34;98063.09;;;21.04;44.56
81545;BME280;70990;50.618;7.346;2023-07-20T13:16:02;98069.72;;;20.86;44.94
81545;BME280;70990;50.618;7.346;2023-07-20T13:18:29;98069.63;;;20.66;44.61
81545;BME280;70990;50.618;7.346;2023-07-20T13:20:57;98065.13;;;21.03;46.86
81545;BME280;70990;50.618;7.346;2023-07-20T13:23:28;98066.75;;;21.24;47.63
81545;BME280;70990;50.618;7.346;2023-07-20T13:25:54;98069.34;;;21.83;44.47
81545;BME280;70990;50.618;7.346;2023-07-20T13:28:21;98065.59;;;22.84;43.81
81545;BME280;70990;50.618;7.346;2023-07-20T13:30:48;98069.72;;;23.25;40.01
81545;BME280;70990;50.618;7.346;2023-07-20T13:33:14;98064.94;;;23.43;44.38